CheckWX is a tool to help pilots better visualize weather data.  It is not intended as a substitute for an official pre-flight weather briefing.

12:24:26 UTC

4A9 METAR
Isbell Field Airport
Fort Payne, Alabama, USA
Current

29 mins ago

K4A9 251155Z AUTO 17003KT 10SM SCT050 BKN060 OVC090 11/07 A3002 RMK AO2 T01050074 10109 20086
Observed
Mar-25 @ 11:55 UTC
Wind
  • 170° at 3 KTS
Visibility
10 SM
Flight Rules
VFR
Cloud Levels
  • Scattered at 5,000' AGL
  • Broken at 6,000' AGL
  • Overcast at 9,000' AGL
Temperature
11°C / 52°F
Dewpoint
C / 45°F
Humidity
77%
Altimeter
30.02" Hg
Pressure
1016.62 hPa
Previous

49 mins ago

K4A9 251135Z AUTO 00000KT 10SM BKN050 BKN060 OVC090 10/07 A3002 RMK AO2 T01010075
Observed
Mar-25 @ 11:35 UTC
Visibility
10 SM
Flight Rules
VFR
Cloud Levels
  • Broken at 5,000' AGL
  • Broken at 6,000' AGL
  • Overcast at 9,000' AGL
Temperature
10°C / 50°F
Dewpoint
C / 46°F
Humidity
88%
Altimeter
30.02" Hg
Pressure
1016.62 hPa
Previous

1 hour ago

K4A9 251115Z AUTO 00000KT 10SM OVC050 10/07 A3001 RMK AO2 T01020071
Observed
Mar-25 @ 11:15 UTC
Visibility
10 SM
Flight Rules
VFR
Cloud Levels
  • Overcast at 5,000' AGL
Temperature
10°C / 50°F
Dewpoint
C / 45°F
Humidity
82%
Altimeter
30.01" Hg
Pressure
1016.22 hPa